createdAt,value
2019-05-07T00:01:55.349Z,7.00
2019-05-07T00:04:27.043Z,7.30
2019-05-07T00:06:58.573Z,5.97
2019-05-07T00:09:32.137Z,7.45
2019-05-07T00:12:05.071Z,6.08
2019-05-07T00:14:35.955Z,7.78
2019-05-07T00:17:07.561Z,6.33
2019-05-07T00:19:38.714Z,7.25
2019-05-07T00:22:09.903Z,7.40
2019-05-07T00:24:42.586Z,6.62
2019-05-07T00:27:14.107Z,8.43
2019-05-07T00:29:45.384Z,6.83
2019-05-07T00:32:16.567Z,5.30
2019-05-07T00:34:54.294Z,6.97
2019-05-07T00:37:53.723Z,8.53
2019-05-07T00:40:52.863Z,7.12
2019-05-07T00:43:26.813Z,7.25
2019-05-07T00:46:05.656Z,6.53
2019-05-07T00:48:37.614Z,6.17
2019-05-07T00:51:42.747Z,6.87
2019-05-07T00:54:14.182Z,5.55
2019-05-07T00:56:45.384Z,7.47
2019-05-07T00:59:16.634Z,8.48
2019-05-07T01:01:47.852Z,7.08
2019-05-07T01:04:19.401Z,6.12
2019-05-07T01:06:50.559Z,5.33
2019-05-07T01:09:22.924Z,7.15
2019-05-07T01:11:54.611Z,7.87
2019-05-07T01:14:26.251Z,5.92
2019-05-07T01:16:58.127Z,5.12
2019-05-07T01:21:59.497Z,7.20
2019-05-07T01:24:32.220Z,4.87
2019-05-07T01:27:03.879Z,6.80
2019-05-07T01:29:35.023Z,6.12
2019-05-07T01:32:17.105Z,5.62
2019-05-07T01:35:13.646Z,4.67
2019-05-07T01:37:45.447Z,5.62
2019-05-07T01:42:46.883Z,6.00
2019-05-07T01:45:18.073Z,8.68
2019-05-07T01:47:49.559Z,6.50
2019-05-07T01:50:22.706Z,6.30
2019-05-07T01:52:53.702Z,8.45
2019-05-07T01:55:24.876Z,6.85
2019-05-07T01:57:56.045Z,6.12
2019-05-07T02:00:27.292Z,7.37
2019-05-07T02:03:05.523Z,5.15
2019-05-07T02:05:42.997Z,6.58
2019-05-07T02:08:22.142Z,5.40
2019-05-07T02:11:02.100Z,6.87
2019-05-07T02:13:33.863Z,6.58
2019-05-07T02:18:35.412Z,6.87
2019-05-07T02:21:06.988Z,6.08
2019-05-07T02:23:38.153Z,6.10
2019-05-07T02:26:09.328Z,6.58
2019-05-07T02:28:42.644Z,5.17
2019-05-07T02:31:15.107Z,6.55
2019-05-07T02:33:46.487Z,5.97
2019-05-07T02:36:17.743Z,5.10
2019-05-07T02:38:59.587Z,5.10
2019-05-07T02:44:04.619Z,8.33
2019-05-07T02:46:45.883Z,6.00
2019-05-07T02:49:23.738Z,6.30
2019-05-07T02:52:03.825Z,6.25
2019-05-07T02:54:53.854Z,5.83
2019-05-07T02:57:24.814Z,5.10
2019-05-07T02:59:55.980Z,5.55
2019-05-07T03:02:27.244Z,6.08
2019-05-07T03:04:58.415Z,5.50
2019-05-07T03:07:33.183Z,5.92
2019-05-07T03:10:03.840Z,5.85
2019-05-07T03:12:35.666Z,5.60
2019-05-07T03:15:07.063Z,6.10
2019-05-07T03:17:42.658Z,5.85
2019-05-07T03:20:16.536Z,6.85
2019-05-07T03:22:47.798Z,6.30
2019-05-07T03:25:26.628Z,6.85
2019-05-07T03:27:57.816Z,4.95
2019-05-07T03:30:47.734Z,4.78
2019-05-07T03:33:29.146Z,4.30
2019-05-07T03:36:06.367Z,6.33
2019-05-07T03:38:34.718Z,7.15
2019-05-07T03:41:06.186Z,7.17
2019-05-07T03:43:37.421Z,5.17
2019-05-07T03:46:14.168Z,6.05
2019-05-07T03:48:46.382Z,4.03
2019-05-07T03:51:17.606Z,9.20
2019-05-07T03:53:49.645Z,6.33
2019-05-07T03:56:23.406Z,6.03
2019-05-07T03:58:53.712Z,5.62
2019-05-07T04:01:24.969Z,8.05
2019-05-07T04:03:56.158Z,4.95
2019-05-07T04:06:27.345Z,4.92
2019-05-07T04:08:58.881Z,6.83
2019-05-07T04:11:30.118Z,5.03
2019-05-07T04:14:02.585Z,6.22
2019-05-07T04:16:36.148Z,5.78
2019-05-07T04:19:07.884Z,7.92
2019-05-07T04:24:27.370Z,7.35
2019-05-07T04:27:05.660Z,4.90
2019-05-07T04:29:36.924Z,5.90
2019-05-07T04:32:08.944Z,4.28
2019-05-07T04:35:05.594Z,6.65
2019-05-07T04:37:36.753Z,7.12
2019-05-07T04:40:08.034Z,4.78
2019-05-07T04:42:39.195Z,5.42
2019-05-07T04:45:13.618Z,5.67
2019-05-07T04:47:47.793Z,6.72
2019-05-07T04:50:36.785Z,5.80
2019-05-07T04:52:54.079Z,5.72
2019-05-07T04:55:25.473Z,8.05
2019-05-07T04:57:56.636Z,7.72
2019-05-07T05:01:43.612Z,6.22
2019-05-07T05:04:25.705Z,4.47
2019-05-07T05:06:47.732Z,5.28
2019-05-07T05:09:18.929Z,9.68
2019-05-07T05:11:52.907Z,5.80
2019-05-07T05:14:23.094Z,5.20
2019-05-07T05:16:54.856Z,6.37
2019-05-07T05:22:25.993Z,5.58
2019-05-07T05:25:15.883Z,7.10
2019-05-07T05:27:47.433Z,8.10
2019-05-07T05:30:25.481Z,4.67
2019-05-07T05:32:56.916Z,5.45
2019-05-07T05:35:28.084Z,6.15
2019-05-07T05:37:59.562Z,4.90
2019-05-07T05:40:32.013Z,5.58
2019-05-07T05:43:09.361Z,5.05
2019-05-07T05:45:43.515Z,5.50
2019-05-07T05:48:14.696Z,4.87
2019-05-07T05:50:53.676Z,5.83
2019-05-07T05:53:32.698Z,7.95
2019-05-07T05:56:08.217Z,5.47
2019-05-07T05:58:52.663Z,8.10
2019-05-07T06:01:52.211Z,5.08
2019-05-07T06:04:42.022Z,10.10
2019-05-07T06:07:28.222Z,8.68
2019-05-07T06:10:12.879Z,9.05
2019-05-07T06:13:12.460Z,6.00
2019-05-07T06:16:18.523Z,8.00
2019-05-07T06:19:12.951Z,8.95
2019-05-07T06:22:12.890Z,6.97
2019-05-07T06:24:49.132Z,8.00
2019-05-07T06:27:22.937Z,9.55
2019-05-07T06:29:54.529Z,7.90
2019-05-07T06:32:26.089Z,9.33
2019-05-07T06:34:57.371Z,9.88
2019-05-07T06:37:29.296Z,6.72
2019-05-07T06:40:20.390Z,8.35
2019-05-07T06:43:12.284Z,9.33
2019-05-07T06:48:16.460Z,11.33
2019-05-07T06:51:00.110Z,9.30
2019-05-07T06:53:33.671Z,11.48
2019-05-07T06:56:05.386Z,13.30
2019-05-07T06:58:45.546Z,12.53
2019-05-07T07:01:54.075Z,10.40
2019-05-07T07:04:33.129Z,12.55
2019-05-07T07:07:33.864Z,9.48
2019-05-07T07:10:19.667Z,12.55
2019-05-07T07:12:52.865Z,11.48
2019-05-07T07:15:23.719Z,11.60
2019-05-07T07:17:54.884Z,11.85
2019-05-07T07:20:26.115Z,12.95
2019-05-07T07:22:57.291Z,12.28
2019-05-07T07:25:28.531Z,12.98
2019-05-07T07:27:59.706Z,13.25
2019-05-07T07:30:43.698Z,10.30
2019-05-07T07:33:15.696Z,13.25
2019-05-07T07:35:47.186Z,11.73
2019-05-07T07:38:33.330Z,9.53
2019-05-07T07:41:28.994Z,9.88
2019-05-07T07:44:02.088Z,10.23
2019-05-07T07:46:33.728Z,10.80
2019-05-07T07:49:10.970Z,10.93
2019-05-07T07:51:42.187Z,8.80
2019-05-07T07:54:13.120Z,11.12
2019-05-07T07:56:56.520Z,11.75
2019-05-07T07:59:52.924Z,11.25
2019-05-07T08:02:32.182Z,10.23
2019-05-07T08:05:03.991Z,10.95
2019-05-07T08:07:35.158Z,9.90
2019-05-07T08:10:07.019Z,11.03
2019-05-07T08:15:17.260Z,14.10
2019-05-07T08:17:43.275Z,10.93
2019-05-07T08:20:15.048Z,11.93
2019-05-07T08:25:16.647Z,12.78
2019-05-07T08:27:47.817Z,10.50
2019-05-07T08:30:22.711Z,12.15
2019-05-07T08:33:02.184Z,10.23
2019-05-07T08:35:58.490Z,13.10
2019-05-07T08:38:32.754Z,11.53
2019-05-07T08:41:04.013Z,13.05
2019-05-07T08:43:35.533Z,10.63
2019-05-07T08:46:26.724Z,12.63
2019-05-07T08:48:58.250Z,11.10
2019-05-07T08:51:29.447Z,11.38
2019-05-07T08:54:06.633Z,10.03
2019-05-07T08:56:38.618Z,14.23
2019-05-07T08:59:12.239Z,9.68
2019-05-07T09:01:43.540Z,10.75
2019-05-07T09:04:15.073Z,7.53
2019-05-07T09:06:46.223Z,8.48
2019-05-07T09:09:17.808Z,9.60
2019-05-07T09:11:49.360Z,8.95
2019-05-07T09:14:23.497Z,11.18
2019-05-07T09:16:52.871Z,9.53
2019-05-07T09:19:24.459Z,11.93
2019-05-07T09:21:56.306Z,8.03
2019-05-07T09:27:17.041Z,9.60
2019-05-07T09:30:13.015Z,9.85
2019-05-07T09:33:02.343Z,12.00
2019-05-07T09:35:53.515Z,7.50
2019-05-07T09:38:24.725Z,10.65
2019-05-07T09:40:57.117Z,11.85
2019-05-07T09:43:28.780Z,10.68
2019-05-07T09:46:02.489Z,9.73
2019-05-07T09:48:33.844Z,9.85
2019-05-07T09:51:05.175Z,10.35
2019-05-07T09:53:37.011Z,8.68
2019-05-07T09:58:39.301Z,11.75
2019-05-07T10:01:12.632Z,10.35
2019-05-07T10:03:44.273Z,10.10
2019-05-07T10:06:15.453Z,11.65
2019-05-07T10:08:47.174Z,9.58
2019-05-07T10:11:29.579Z,9.63
2019-05-07T10:14:05.069Z,9.55
2019-05-07T10:16:58.137Z,8.25
2019-05-07T10:19:29.880Z,10.50
2019-05-07T10:22:02.335Z,11.22
2019-05-07T10:24:33.910Z,10.50
2019-05-07T10:27:07.260Z,11.00
2019-05-07T10:29:38.627Z,9.15
2019-05-07T10:32:12.631Z,10.05
2019-05-07T10:34:43.661Z,8.83
2019-05-07T10:37:15.213Z,7.97
2019-05-07T10:39:47.126Z,8.13
2019-05-07T10:42:18.662Z,8.90
2019-05-07T10:45:03.029Z,10.68
2019-05-07T10:47:52.100Z,8.48
2019-05-07T10:50:35.260Z,8.23
2019-05-07T10:52:58.919Z,8.68
2019-05-07T10:55:30.109Z,9.18
2019-05-07T10:58:03.009Z,9.18
2019-05-07T11:00:35.561Z,10.43
2019-05-07T11:03:07.483Z,7.72
2019-05-07T11:05:39.180Z,8.65
2019-05-07T11:08:11.173Z,7.30
2019-05-07T11:10:42.442Z,8.43
2019-05-07T11:13:14.003Z,9.25
2019-05-07T11:15:48.224Z,8.05
2019-05-07T11:18:25.319Z,8.58
2019-05-07T11:20:56.822Z,8.25
2019-05-07T11:23:28.836Z,8.80
2019-05-07T11:26:02.385Z,6.92
2019-05-07T11:28:33.885Z,6.58
2019-05-07T11:31:06.726Z,7.53
2019-05-07T11:36:08.302Z,6.37
2019-05-07T11:38:41.819Z,8.50
2019-05-07T11:41:12.851Z,9.10
2019-05-07T11:44:01.759Z,7.50
2019-05-07T11:46:44.557Z,8.03
2019-05-07T11:49:22.731Z,8.03
2019-05-07T11:51:59.152Z,8.85
2019-05-07T11:54:31.811Z,7.83
2019-05-07T11:57:03.444Z,10.35
2019-05-07T11:59:34.680Z,6.33
2019-05-07T12:02:06.770Z,5.72
2019-05-07T12:04:38.253Z,6.83
2019-05-07T12:07:11.762Z,5.75
2019-05-07T12:09:42.749Z,7.60
2019-05-07T12:12:14.352Z,6.47
2019-05-07T12:14:45.874Z,6.67
2019-05-07T12:17:17.425Z,6.33
2019-05-07T12:19:48.983Z,5.87
2019-05-07T12:22:46.674Z,5.67
2019-05-07T12:25:18.851Z,6.47
2019-05-07T12:27:52.235Z,6.92
2019-05-07T12:30:43.347Z,7.10
2019-05-07T12:35:52.490Z,8.30
2019-05-07T12:38:23.815Z,5.67
2019-05-07T12:40:55.013Z,6.55
2019-05-07T12:43:26.523Z,6.42
2019-05-07T12:45:57.774Z,8.63
2019-05-07T12:48:29.258Z,5.53
2019-05-07T12:51:01.028Z,7.03
2019-05-07T12:53:42.496Z,6.37
2019-05-07T12:56:14.130Z,5.72
2019-05-07T12:58:46.067Z,7.20
2019-05-07T13:01:30.192Z,7.53
2019-05-07T13:04:13.608Z,6.15
2019-05-07T13:07:11.565Z,6.22
2019-05-07T13:09:42.873Z,6.30
2019-05-07T13:12:14.108Z,9.55
2019-05-07T13:14:45.301Z,8.15
2019-05-07T13:17:16.552Z,9.58
2019-05-07T13:19:48.342Z,7.85
2019-05-07T13:24:52.745Z,6.83
2019-05-07T13:27:23.839Z,7.33
2019-05-07T13:29:55.766Z,7.95
2019-05-07T13:32:31.896Z,9.25
2019-05-07T13:35:04.089Z,8.10
2019-05-07T13:37:37.940Z,10.10
2019-05-07T13:40:25.276Z,10.35
2019-05-07T13:43:05.744Z,8.35
2019-05-07T13:45:44.407Z,10.13
2019-05-07T13:48:18.209Z,9.00
2019-05-07T13:50:50.453Z,8.78
2019-05-07T13:53:22.861Z,9.05
2019-05-07T13:55:54.690Z,10.00
2019-05-07T13:58:26.470Z,8.90
2019-05-07T14:01:05.486Z,10.53
2019-05-07T14:03:36.743Z,9.83
2019-05-07T14:06:08.775Z,7.40
2019-05-07T14:08:42.651Z,8.75
2019-05-07T14:11:14.161Z,7.65
2019-05-07T14:13:46.581Z,8.15
2019-05-07T14:16:18.127Z,9.65
2019-05-07T14:18:49.431Z,11.85
2019-05-07T14:21:21.939Z,11.95
2019-05-07T14:23:53.251Z,7.40
2019-05-07T14:26:24.602Z,8.30
2019-05-07T14:28:55.773Z,8.28
2019-05-07T14:31:27.835Z,9.68
2019-05-07T14:34:04.399Z,8.65
2019-05-07T14:36:54.971Z,10.13
2019-05-07T14:39:26.203Z,11.08
2019-05-07T14:41:59.395Z,9.95
2019-05-07T14:44:48.400Z,8.58
2019-05-07T14:47:22.260Z,10.70
2019-05-07T14:49:53.597Z,10.53
2019-05-07T14:52:32.630Z,9.40
2019-05-07T14:54:58.431Z,9.18
2019-05-07T14:57:30.211Z,10.90
2019-05-07T15:02:34.547Z,12.95
2019-05-07T15:05:06.375Z,9.98
2019-05-07T15:10:08.198Z,9.00
2019-05-07T15:12:39.819Z,9.78
2019-05-07T15:15:12.692Z,11.12
2019-05-07T15:18:15.919Z,9.23
2019-05-07T15:20:47.546Z,9.95
2019-05-07T15:23:26.395Z,9.50
2019-05-07T15:26:01.861Z,9.88
2019-05-07T15:28:32.288Z,9.18
2019-05-07T15:31:23.174Z,8.58
2019-05-07T15:33:54.810Z,10.58
2019-05-07T15:36:26.618Z,10.63
2019-05-07T15:38:57.950Z,10.63
2019-05-07T15:41:29.429Z,12.63
2019-05-07T15:44:02.725Z,10.93
2019-05-07T15:46:34.550Z,11.97
2019-05-07T15:49:06.069Z,8.78
2019-05-07T15:51:37.345Z,10.78
2019-05-07T15:54:08.558Z,8.85
2019-05-07T15:56:39.792Z,10.65
2019-05-07T15:59:14.163Z,10.28
2019-05-07T16:01:46.034Z,11.53
2019-05-07T16:06:49.341Z,9.55
2019-05-07T16:09:22.120Z,12.45
2019-05-07T16:11:53.758Z,8.28
2019-05-07T16:14:26.933Z,9.78
2019-05-07T16:17:06.539Z,12.00
2019-05-07T16:19:38.232Z,11.43
2019-05-07T16:22:13.721Z,12.20
2019-05-07T16:24:45.402Z,10.48
2019-05-07T16:27:16.572Z,10.98
2019-05-07T16:29:47.879Z,10.32
2019-05-07T16:32:19.129Z,10.98
2019-05-07T16:34:52.649Z,10.58
2019-05-07T16:37:24.471Z,10.80
2019-05-07T16:39:55.660Z,11.65
2019-05-07T16:42:28.351Z,8.73
2019-05-07T16:45:02.748Z,10.90
2019-05-07T16:47:33.597Z,9.73
2019-05-07T16:50:05.462Z,11.22
2019-05-07T16:55:07.087Z,12.18
2019-05-07T16:57:55.671Z,11.12
2019-05-07T17:00:34.391Z,10.58
2019-05-07T17:03:08.176Z,12.47
2019-05-07T17:05:39.352Z,10.88
2019-05-07T17:08:27.875Z,9.50
2019-05-07T17:10:59.242Z,10.03
2019-05-07T17:13:31.936Z,8.73
2019-05-07T17:16:03.578Z,7.65
2019-05-07T17:18:35.006Z,9.35
2019-05-07T17:21:06.274Z,9.08
2019-05-07T17:23:44.229Z,10.05
2019-05-07T17:26:11.959Z,9.63
2019-05-07T17:28:43.674Z,8.70
2019-05-07T17:31:15.197Z,10.25
2019-05-07T17:33:46.520Z,11.55
2019-05-07T17:36:17.745Z,9.98
2019-05-07T17:38:51.848Z,9.43
2019-05-07T17:41:27.072Z,11.85
2019-05-07T17:43:57.413Z,9.68
2019-05-07T17:46:28.861Z,8.93
2019-05-07T17:49:02.447Z,10.15
2019-05-07T17:51:43.552Z,10.88
2019-05-07T17:54:15.092Z,10.43
2019-05-07T17:56:46.780Z,11.45
2019-05-07T17:59:18.324Z,10.08
2019-05-07T18:02:07.138Z,9.43
2019-05-07T18:04:48.495Z,9.55
2019-05-07T18:07:14.272Z,9.63
2019-05-07T18:09:45.510Z,9.98
2019-05-07T18:12:16.832Z,9.33
2019-05-07T18:14:48.086Z,11.03
2019-05-07T18:17:37.043Z,12.55
2019-05-07T18:20:12.713Z,10.88
2019-05-07T18:22:43.715Z,12.07
2019-05-07T18:25:15.632Z,12.45
2019-05-07T18:27:47.231Z,12.45
2019-05-07T18:30:18.470Z,9.95
2019-05-07T18:32:55.118Z,10.78
2019-05-07T18:35:26.392Z,9.18
2019-05-07T18:37:58.256Z,11.05
2019-05-07T18:42:59.883Z,10.45
2019-05-07T18:45:31.429Z,8.93
2019-05-07T18:48:02.610Z,10.28
2019-05-07T18:50:34.176Z,10.68
2019-05-07T18:53:05.739Z,11.48
2019-05-07T18:55:37.116Z,11.75
2019-05-07T18:58:08.707Z,9.80
2019-05-07T19:00:43.800Z,13.03
2019-05-07T19:03:25.514Z,11.05
2019-05-07T19:05:57.895Z,11.10
2019-05-07T19:08:29.543Z,13.90
2019-05-07T19:11:01.079Z,13.28
2019-05-07T19:13:32.750Z,10.88
2019-05-07T19:16:06.553Z,13.05
2019-05-07T19:18:38.331Z,13.43
2019-05-07T19:23:42.202Z,10.85
2019-05-07T19:26:13.575Z,12.65
2019-05-07T19:28:45.151Z,12.20
2019-05-07T19:31:16.766Z,13.83
2019-05-07T19:33:48.365Z,13.48
2019-05-07T19:36:22.208Z,11.43
2019-05-07T19:38:53.309Z,10.88
2019-05-07T19:41:25.286Z,13.62
2019-05-07T19:43:56.488Z,10.68
2019-05-07T19:46:28.014Z,10.80
2019-05-07T19:48:59.219Z,12.98
2019-05-07T19:51:32.059Z,11.95
2019-05-07T19:54:04.118Z,10.03
2019-05-07T19:56:36.658Z,9.75
2019-05-07T19:59:07.900Z,12.15
2019-05-07T20:01:44.189Z,12.43
2019-05-07T20:04:15.862Z,9.85
2019-05-07T20:06:47.318Z,10.45
2019-05-07T20:09:20.914Z,12.88
2019-05-07T20:11:52.459Z,11.53
2019-05-07T20:14:23.781Z,9.90
2019-05-07T20:16:55.419Z,11.70
2019-05-07T20:19:26.776Z,12.05
2019-05-07T20:21:58.047Z,10.58
2019-05-07T20:24:29.397Z,13.28
2019-05-07T20:27:02.959Z,10.35
2019-05-07T20:29:34.407Z,10.80
2019-05-07T20:32:05.991Z,10.65
2019-05-07T20:34:37.804Z,9.68
2019-05-07T20:37:09.741Z,10.70
2019-05-07T20:39:42.677Z,9.15
2019-05-07T20:42:14.405Z,11.05
2019-05-07T20:44:45.677Z,12.07
2019-05-07T20:47:16.926Z,11.05
2019-05-07T20:49:48.584Z,11.18
2019-05-07T20:52:22.789Z,13.60
2019-05-07T20:55:33.766Z,13.93
2019-05-07T20:58:03.733Z,11.65
2019-05-07T21:00:37.067Z,9.80
2019-05-07T21:03:20.617Z,11.35
2019-05-07T21:05:53.362Z,10.35
2019-05-07T21:08:24.777Z,11.25
2019-05-07T21:10:56.364Z,10.30
2019-05-07T21:13:31.666Z,10.88
2019-05-07T21:16:02.699Z,12.78
2019-05-07T21:18:34.489Z,14.05
2019-05-07T21:21:06.207Z,14.25
2019-05-07T21:26:07.738Z,14.60
2019-05-07T21:28:39.514Z,13.45
2019-05-07T21:33:43.023Z,15.45
2019-05-07T21:38:45.374Z,13.60
2019-05-07T21:41:16.915Z,13.35
2019-05-07T21:43:48.487Z,13.83
2019-05-07T21:46:22.010Z,12.13
2019-05-07T21:48:53.747Z,12.98
2019-05-07T21:51:25.415Z,13.08
2019-05-07T21:54:13.552Z,15.53
2019-05-07T21:57:05.241Z,15.45
2019-05-07T21:59:37.103Z,15.13
2019-05-07T22:04:45.075Z,14.87
2019-05-07T22:09:46.594Z,14.68
2019-05-07T22:12:18.101Z,14.45
2019-05-07T22:14:49.435Z,13.70
2019-05-07T22:17:21.943Z,12.45
2019-05-07T22:19:54.294Z,12.82
2019-05-07T22:22:25.614Z,13.45
2019-05-07T22:24:57.058Z,16.42
2019-05-07T22:27:30.147Z,11.78
2019-05-07T22:30:02.250Z,10.60
2019-05-07T22:32:49.876Z,13.68
2019-05-07T22:35:24.810Z,18.05
2019-05-07T22:38:00.605Z,11.63
2019-05-07T22:40:34.002Z,12.65
2019-05-07T22:43:07.158Z,13.22
2019-05-07T22:45:38.762Z,12.47
2019-05-07T22:48:12.035Z,14.20
2019-05-07T22:50:44.087Z,16.52
2019-05-07T22:53:15.666Z,16.17
2019-05-07T22:55:47.225Z,12.37
2019-05-07T22:58:32.634Z,13.43
2019-05-07T23:01:06.813Z,13.35
2019-05-07T23:03:38.520Z,13.28
2019-05-07T23:06:12.123Z,11.22
2019-05-07T23:08:42.949Z,14.58
2019-05-07T23:11:14.474Z,12.82
2019-05-07T23:13:46.373Z,13.88
2019-05-07T23:16:17.580Z,14.80
2019-05-07T23:18:49.167Z,14.73
2019-05-07T23:21:24.373Z,14.68
2019-05-07T23:23:53.836Z,12.15
2019-05-07T23:28:54.940Z,14.35
2019-05-07T23:31:26.113Z,12.45
2019-05-07T23:33:57.606Z,14.25
2019-05-07T23:36:29.119Z,13.75
2019-05-07T23:39:02.614Z,14.33
2019-05-07T23:41:44.390Z,11.68
2019-05-07T23:44:19.952Z,11.53
2019-05-07T23:46:52.042Z,12.18
2019-05-07T23:49:24.109Z,13.22
2019-05-07T23:51:55.990Z,13.55
2019-05-07T23:54:27.239Z,12.68
2019-05-07T23:57:05.888Z,13.22
2019-05-07T23:59:32.968Z,12.65
